Time;durP1;ratioP1;P1;durP2;ratioP2;P2;SDS_P1;SDS_P2;PMS_P1;PMS_P2;Temp;Humidity;BMP_temperature;BMP_pressure;BME280_temperature;BME280_humidity;BME280_pressure;Samples;Min_cycle;Max_cycle;Signal;HPM_P1;HPM_P2
2021/12/08 00:00:55;;;;;;;47.57;26.73;;;;;;;-0.24;85.94;99888.13;5017103;28;20046;-78
2021/12/08 00:03:22;;;;;;;45.90;26.07;;;;;;;-0.27;85.80;99877.69;5013420;28;20037;-79
2021/12/08 00:05:48;;;;;;;55.60;28.10;;;;;;;-0.30;86.27;99877.59;5031385;28;20460;-79
2021/12/08 00:08:17;;;;;;;48.47;26.33;;;;;;;-0.32;86.26;99867.16;5012601;28;20034;-77
2021/12/08 00:13:18;;;;;;;50.87;27.50;;;;;;;-0.34;86.38;99860.19;5026429;28;20026;-78
2021/12/08 00:15:49;;;;;;;50.07;26.93;;;;;;;-0.34;86.25;99860.19;5013223;28;20034;-79
2021/12/08 00:18:19;;;;;;;48.00;26.00;;;;;;;-0.36;86.82;99860.16;5028374;28;20382;-78
2021/12/08 00:20:46;;;;;;;54.03;26.73;;;;;;;-0.35;86.29;99858.44;5015447;28;20411;-77
2021/12/08 00:23:13;;;;;;;48.80;26.70;;;;;;;-0.37;86.98;99862.69;5016407;28;20045;-78
2021/12/08 00:25:39;;;;;;;50.83;26.80;;;;;;;-0.37;86.73;99863.56;5031142;28;20042;-79
2021/12/08 00:28:06;;;;;;;47.07;25.17;;;;;;;-0.37;86.92;99857.50;5016162;28;20183;-78
2021/12/08 00:30:33;;;;;;;51.73;26.83;;;;;;;-0.38;87.02;99853.19;5031076;28;20048;-78
2021/12/08 00:32:59;;;;;;;52.97;28.13;;;;;;;-0.41;87.24;99843.59;5031164;28;20034;-77
2021/12/08 00:35:26;;;;;;;54.00;28.67;;;;;;;-0.40;87.70;99840.16;5031218;28;20120;-77
2021/12/08 00:37:52;;;;;;;54.20;28.80;;;;;;;-0.41;87.81;99834.97;5016241;28;20476;-78
2021/12/08 00:40:18;;;;;;;52.03;27.63;;;;;;;-0.42;87.75;99833.19;5016023;28;20025;-79
2021/12/08 00:42:45;;;;;;;51.97;28.10;;;;;;;-0.43;87.66;99818.47;5013972;28;20044;-79
2021/12/08 00:45:13;;;;;;;53.23;28.60;;;;;;;-0.42;87.85;99818.50;5022279;28;20040;-78
2021/12/08 00:47:39;;;;;;;52.27;27.50;;;;;;;-0.42;87.56;99823.69;5031283;28;20041;-77
2021/12/08 00:50:08;;;;;;;59.57;30.50;;;;;;;-0.45;87.62;99814.13;5031542;28;20037;-79
2021/12/08 00:52:33;;;;;;;54.27;29.03;;;;;;;-0.47;87.30;99810.63;5014517;28;20125;-79
2021/12/08 00:55:00;;;;;;;52.17;27.53;;;;;;;-0.46;86.82;99811.50;5031158;28;20029;-79
2021/12/08 00:57:25;;;;;;;53.87;26.87;;;;;;;-0.50;87.39;99810.53;5015645;28;20506;-79
2021/12/08 00:59:51;;;;;;;54.47;27.00;;;;;;;-0.52;86.93;99807.03;5014929;28;20038;-79
2021/12/08 01:02:16;;;;;;;52.20;27.20;;;;;;;-0.53;87.35;99809.56;5015075;28;20155;-79
2021/12/08 01:04:42;;;;;;;50.37;27.80;;;;;;;-0.56;87.11;99815.53;5015898;28;20136;-79
2021/12/08 01:07:08;;;;;;;54.30;27.13;;;;;;;-0.55;87.18;99809.53;5016174;28;20072;-79
2021/12/08 01:09:33;;;;;;;53.97;29.17;;;;;;;-0.56;87.47;99805.19;5030092;28;20112;-79
2021/12/08 01:12:02;;;;;;;48.83;27.80;;;;;;;-0.57;86.72;99805.16;5015934;28;20511;-79
2021/12/08 01:14:33;;;;;;;55.30;28.07;;;;;;;-0.62;87.25;99807.63;5012564;28;20409;-79
2021/12/08 01:17:00;;;;;;;58.92;27.90;;;;;;;-0.63;87.39;99808.44;5015559;28;20041;-79
2021/12/08 01:19:26;;;;;;;55.33;28.90;;;;;;;-0.64;87.03;99800.63;5015428;28;20066;-79
2021/12/08 01:21:52;;;;;;;53.30;29.07;;;;;;;-0.66;87.42;99797.97;5014402;28;20069;-80
2021/12/08 01:24:18;;;;;;;56.87;28.73;;;;;;;-0.65;87.36;99786.81;5015457;28;20038;-79
2021/12/08 01:26:44;;;;;;;55.80;29.20;;;;;;;-0.65;87.13;99789.41;5015423;28;20037;-78
2021/12/08 01:29:09;;;;;;;51.67;27.43;;;;;;;-0.64;87.16;99790.28;5030555;28;20467;-78
2021/12/08 01:31:39;;;;;;;58.90;31.03;;;;;;;-0.67;86.67;99776.38;5014507;28;20034;-79
2021/12/08 01:34:04;;;;;;;53.63;28.43;;;;;;;-0.69;87.03;99783.22;5011499;28;20033;-79
2021/12/08 01:36:30;;;;;;;62.83;29.97;;;;;;;-0.68;86.97;99781.53;5030475;28;20136;-79
2021/12/08 01:38:55;;;;;;;54.03;28.83;;;;;;;-0.71;86.98;99795.28;5030558;28;20038;-79
2021/12/08 01:41:23;;;;;;;55.43;27.73;;;;;;;-0.73;86.73;99789.19;5015776;28;20109;-78
2021/12/08 01:46:32;;;;;;;56.37;28.10;;;;;;;-0.74;86.85;99782.22;5012048;28;20037;-79
2021/12/08 01:48:58;;;;;;;52.27;26.83;;;;;;;-0.77;87.36;99778.69;5014157;28;20104;-78
2021/12/08 01:51:25;;;;;;;56.37;28.50;;;;;;;-0.78;86.98;99767.47;5014972;28;20045;-79
2021/12/08 01:53:53;;;;;;;58.63;29.23;;;;;;;-0.78;87.07;99761.41;5015405;28;20396;-79
2021/12/08 01:56:20;;;;;;;55.43;28.80;;;;;;;-0.79;86.88;99751.84;5013337;28;20026;-79
2021/12/08 01:58:46;;;;;;;61.83;31.20;;;;;;;-0.80;87.31;99744.94;5021987;28;20077;-79
2021/12/08 02:01:16;;;;;;;65.13;33.13;;;;;;;-0.77;87.46;99743.28;5030435;28;20125;-80
2021/12/08 02:03:43;;;;;;;60.87;30.10;;;;;;;-0.65;87.54;99737.56;5011955;28;20037;-79
2021/12/08 02:06:11;;;;;;;58.67;30.63;;;;;;;-0.53;87.74;99724.91;5026218;28;20038;-79
2021/12/08 02:08:37;;;;;;;60.10;31.33;;;;;;;-0.41;87.81;99724.34;5010645;28;20041;-79
2021/12/08 02:11:04;;;;;;;59.00;29.80;;;;;;;-0.38;87.07;99711.47;5015161;28;20034;-79
2021/12/08 02:13:36;;;;;;;56.87;29.80;;;;;;;-0.36;86.93;99708.91;5015126;28;20052;-80
2021/12/08 02:16:03;;;;;;;59.20;30.25;;;;;;;-0.43;86.84;99699.22;5025751;28;20026;-80
2021/12/08 02:18:29;;;;;;;67.63;32.23;;;;;;;-0.49;86.62;99687.88;5011807;28;20041;-79
2021/12/08 02:20:58;;;;;;;60.50;29.23;;;;;;;-0.54;86.36;99681.69;5030312;28;20037;-80
2021/12/08 02:23:24;;;;;;;56.37;30.10;;;;;;;-0.58;86.81;99677.25;5010988;28;20113;-80
2021/12/08 02:25:49;;;;;;;63.63;30.23;;;;;;;-0.64;86.99;99674.53;5005458;28;20108;-79
2021/12/08 02:28:16;;;;;;;57.47;29.40;;;;;;;-0.63;87.23;99658.13;5016534;28;20026;-80
2021/12/08 02:47:08;;;;;;;58.60;31.43;;;;;;;-0.54;87.60;99641.94;5037494;28;20037;-81
2021/12/08 02:49:34;;;;;;;58.10;29.80;;;;;;;-0.55;87.59;99646.25;5031400;28;20101;-79
2021/12/08 02:52:01;;;;;;;52.70;27.87;;;;;;;-0.53;87.02;99651.47;5034155;28;20548;-80
2021/12/08 02:54:33;;;;;;;57.13;30.20;;;;;;;-0.54;87.17;99653.19;5018419;28;20077;-80
2021/12/08 02:56:58;;;;;;;57.53;29.02;;;;;;;-0.58;86.95;99656.53;5030369;28;20033;-81
2021/12/08 02:59:24;;;;;;;59.77;29.70;;;;;;;-0.57;87.10;99653.09;5018554;28;20037;-81
2021/12/08 03:01:49;;;;;;;57.93;30.03;;;;;;;-0.58;86.75;99659.09;5033657;28;20030;-80
2021/12/08 03:04:15;;;;;;;58.90;29.83;;;;;;;-0.56;86.78;99653.97;5030564;28;20061;-81
2021/12/08 03:06:40;;;;;;;67.50;31.47;;;;;;;-0.56;86.57;99648.78;5018284;28;20519;-81
2021/12/08 03:09:07;;;;;;;55.60;29.47;;;;;;;-0.58;86.75;99646.16;5018309;28;20046;-80
2021/12/08 03:11:33;;;;;;;56.93;30.63;;;;;;;-0.61;86.52;99640.91;5018218;28;20042;-80
2021/12/08 03:14:10;;;;;;;53.20;28.03;;;;;;;-0.62;86.62;99639.16;5018337;28;20061;-80
2021/12/08 03:16:40;;;;;;;52.57;29.20;;;;;;;-0.62;86.52;99638.28;5018393;28;20049;-80
2021/12/08 03:19:07;;;;;;;56.20;27.53;;;;;;;-0.64;87.05;99634.78;5018616;28;20108;-80
2021/12/08 03:21:33;;;;;;;59.53;31.43;;;;;;;-0.67;86.75;99625.22;5032637;28;20034;-80
2021/12/08 03:24:16;;;;;;;57.53;29.30;;;;;;;-0.66;86.66;99632.13;5033443;28;20029;-81
2021/12/08 03:29:44;;;;;;;56.90;29.23;;;;;;;-0.73;87.28;99625.94;5033931;28;19913;-80
2021/12/08 03:32:11;;;;;;;53.63;28.40;;;;;;;-0.73;86.48;99622.47;5013797;28;20053;-80
2021/12/08 03:34:41;;;;;;;58.50;28.83;;;;;;;-0.77;86.84;99618.91;5017723;28;20034;-80
2021/12/08 03:37:08;;;;;;;59.43;29.40;;;;;;;-0.78;87.03;99617.19;5024960;28;20076;-80
2021/12/08 03:39:38;;;;;;;58.33;28.83;;;;;;;-0.79;86.57;99599.88;5017147;28;20037;-80
2021/12/08 03:42:04;;;;;;;57.43;28.60;;;;;;;-0.80;86.61;99598.13;5000271;28;20089;-81
2021/12/08 03:44:30;;;;;;;57.97;29.07;;;;;;;-0.83;86.51;99592.00;5033108;28;20077;-80
2021/12/08 03:47:01;;;;;;;58.03;28.90;;;;;;;-0.89;86.64;99598.78;5032063;28;20110;-81
2021/12/08 03:49:28;;;;;;;56.67;29.13;;;;;;;-0.92;86.93;99592.63;5034969;28;20087;-80
2021/12/08 03:52:00;;;;;;;60.80;29.40;;;;;;;-0.93;86.78;99596.94;5017937;28;20042;-81
2021/12/08 03:54:26;;;;;;;56.50;28.77;;;;;;;-0.97;86.67;99602.00;5031401;28;20080;-80
2021/12/08 03:56:52;;;;;;;57.43;30.17;;;;;;;-1.00;86.66;99607.97;5017702;28;20042;-80
2021/12/08 03:59:17;;;;;;;56.77;28.83;;;;;;;-1.04;86.39;99619.13;5033346;28;20038;-80
2021/12/08 04:01:42;;;;;;;55.60;28.20;;;;;;;-1.07;86.46;99613.84;5032561;28;20112;-80
2021/12/08 04:04:10;;;;;;;58.33;30.23;;;;;;;-1.11;86.46;99630.13;5008412;28;20034;-81
2021/12/08 04:06:45;;;;;;;60.40;31.80;;;;;;;-1.16;86.84;99630.00;5032659;28;20091;-80
2021/12/08 04:09:18;;;;;;;59.77;30.17;;;;;;;-1.19;86.69;99634.25;5017087;28;20042;-80
2021/12/08 04:11:45;;;;;;;61.67;29.30;;;;;;;-1.26;86.22;99642.69;5032278;28;20059;-80
2021/12/08 04:14:16;;;;;;;54.77;28.57;;;;;;;-1.36;86.85;99637.28;5016645;28;20038;-81
2021/12/08 04:16:50;;;;;;;56.87;28.37;;;;;;;-1.37;87.10;99637.22;5032446;28;20042;-81
2021/12/08 04:19:17;;;;;;;59.40;30.80;;;;;;;-1.40;86.93;99638.00;5017510;28;20124;-80
2021/12/08 04:21:45;;;;;;;57.93;29.53;;;;;;;-1.41;87.10;99638.84;5027937;28;20042;-80
2021/12/08 04:24:11;;;;;;;57.77;29.07;;;;;;;-1.44;86.63;99631.00;5016068;28;20069;-80
2021/12/08 04:26:44;;;;;;;57.63;27.60;;;;;;;-1.43;86.60;99626.69;5016801;28;20534;-80
2021/12/08 04:29:11;;;;;;;60.87;29.43;;;;;;;-1.45;86.99;99625.78;5017278;28;20045;-80
2021/12/08 04:31:39;;;;;;;56.87;27.50;;;;;;;-1.47;86.81;99625.72;5017453;28;20033;-80
2021/12/08 04:34:17;;;;;;;65.67;31.87;;;;;;;-1.48;87.18;99620.53;5014861;28;20034;-79
2021/12/08 04:36:47;;;;;;;54.23;27.57;;;;;;;-1.50;86.96;99623.06;5012147;28;20071;-80
2021/12/08 04:39:28;;;;;;;51.77;27.60;;;;;;;-1.51;86.86;99615.28;5015832;28;20034;-80
2021/12/08 04:42:01;;;;;;;52.23;28.43;;;;;;;-1.52;86.95;99619.53;5022348;28;20044;-79
2021/12/08 04:44:54;;;;;;;59.27;28.20;;;;;;;-1.52;86.55;99618.66;5014941;28;20462;-79
2021/12/08 05:00:19;;;;;;;58.40;27.83;;;;;;;-1.52;86.58;99632.47;5007115;28;20038;-78
2021/12/08 05:03:48;;;;;;;51.60;27.03;;;;;;;-1.56;86.76;99622.91;5025886;28;20046;-79
2021/12/08 05:06:39;;;;;;;51.10;25.93;;;;;;;-1.55;86.66;99622.94;5025603;28;20069;-78
2021/12/08 05:09:10;;;;;;;51.33;26.60;;;;;;;-1.55;86.54;99629.81;5013731;28;20045;-78
2021/12/08 05:11:39;;;;;;;52.93;26.87;;;;;;;-1.52;87.17;99635.06;5031208;28;20046;-80
2021/12/08 05:14:12;;;;;;;53.43;26.83;;;;;;;-1.53;86.41;99633.31;5021138;28;20538;-81
2021/12/08 05:16:41;;;;;;;54.00;27.60;;;;;;;-1.53;86.23;99635.91;5016798;28;20100;-80
2021/12/08 05:19:10;;;;;;;55.03;28.03;;;;;;;-1.54;86.42;99629.00;5019488;28;20038;-81
2021/12/08 05:21:43;;;;;;;54.63;27.27;;;;;;;-1.52;86.32;99618.66;5034118;28;20030;-80
2021/12/08 05:27:03;;;;;;;49.90;26.30;;;;;;;-1.54;86.55;99621.22;4994190;28;20042;-80
2021/12/08 05:29:34;;;;;;;51.90;25.53;;;;;;;-1.48;86.84;99616.22;4989153;28;20043;-79
2021/12/08 05:32:02;;;;;;;55.00;27.57;;;;;;;-1.46;86.46;99624.03;4996765;28;20041;-79
2021/12/08 05:34:27;;;;;;;47.33;25.23;;;;;;;-1.41;86.06;99625.91;4997858;28;20038;-79
2021/12/08 05:36:54;;;;;;;46.80;23.93;;;;;;;-1.36;86.27;99626.91;4998609;28;20041;-80
2021/12/08 05:39:23;;;;;;;50.30;25.60;;;;;;;-1.31;86.43;99634.81;4980473;28;20038;-80
2021/12/08 05:41:52;;;;;;;47.83;25.57;;;;;;;-1.24;86.20;99641.88;4995627;28;20030;-79
2021/12/08 05:44:18;;;;;;;51.83;27.23;;;;;;;-1.20;86.16;99637.69;4997966;28;20062;-79
2021/12/08 05:46:46;;;;;;;48.23;25.33;;;;;;;-1.15;86.08;99636.09;4997985;28;20065;-79
2021/12/08 05:49:16;;;;;;;49.53;24.70;;;;;;;-1.10;86.01;99644.88;4996387;28;20034;-80
2021/12/08 05:51:43;;;;;;;49.33;25.27;;;;;;;-1.09;85.61;99646.59;4996056;28;20031;-79
2021/12/08 05:54:14;;;;;;;43.80;24.53;;;;;;;-1.16;85.97;99640.38;4995924;28;20054;-79
2021/12/08 05:56:41;;;;;;;44.60;24.17;;;;;;;-1.11;86.02;99645.69;4996585;28;20057;-81
2021/12/08 05:59:10;;;;;;;51.93;26.53;;;;;;;-1.07;85.92;99636.25;4992139;28;20035;-80
2021/12/08 06:01:45;;;;;;;49.53;26.43;;;;;;;-1.03;85.57;99635.53;4987957;28;20058;-80
2021/12/08 06:04:11;;;;;;;56.43;30.17;;;;;;;-1.00;85.73;99636.47;4995561;28;20034;-80
2021/12/08 06:06:38;;;;;;;54.10;27.97;;;;;;;-0.95;85.37;99634.88;4978967;28;20115;-80
2021/12/08 06:09:07;;;;;;;52.50;28.20;;;;;;;-0.91;85.91;99635.84;4996299;28;20038;-80
2021/12/08 06:11:33;;;;;;;48.43;25.90;;;;;;;-0.89;85.44;99639.34;5000299;28;20022;-79
2021/12/08 06:14:00;;;;;;;46.40;25.30;;;;;;;-0.88;85.42;99631.59;5000164;28;20065;-79
2021/12/08 06:16:28;;;;;;;55.37;26.80;;;;;;;-0.83;85.05;99630.88;4990650;28;20026;-80
2021/12/08 06:18:53;;;;;;;45.87;26.43;;;;;;;-0.78;85.37;99617.19;5000602;28;20045;-80
2021/12/08 06:21:22;;;;;;;50.47;27.50;;;;;;;-0.75;85.31;99621.56;4999038;28;20046;-79
2021/12/08 06:23:48;;;;;;;49.60;26.17;;;;;;;-0.74;85.52;99611.22;4998863;28;20125;-80
2021/12/08 06:26:18;;;;;;;50.20;25.37;;;;;;;-0.71;85.30;99618.19;4999297;28;20088;-80
2021/12/08 06:28:43;;;;;;;43.93;23.63;;;;;;;-0.69;85.42;99611.34;5000398;28;20030;-80
2021/12/08 06:31:12;;;;;;;50.10;27.83;;;;;;;-0.62;85.20;99602.00;4999629;28;20049;-80
2021/12/08 06:33:38;;;;;;;46.80;25.23;;;;;;;-0.62;85.04;99600.28;5000211;28;20038;-80
2021/12/08 06:36:09;;;;;;;51.13;26.13;;;;;;;-0.60;85.11;99590.84;4999990;28;20504;-79
2021/12/08 06:38:36;;;;;;;46.57;25.10;;;;;;;-0.55;85.12;99599.59;5000422;28;20070;-80
2021/12/08 06:41:24;;;;;;;43.57;23.10;;;;;;;-0.51;84.74;99601.41;4999136;28;20030;-79
2021/12/08 06:43:59;;;;;;;51.37;26.33;;;;;;;-0.49;85.01;99598.88;4998509;28;20066;-80
2021/12/08 06:46:26;;;;;;;51.07;25.93;;;;;;;-0.46;84.81;99607.56;4998632;28;20053;-80
2021/12/08 06:48:55;;;;;;;47.90;24.97;;;;;;;-0.42;84.70;99605.91;5000181;28;20045;-79
2021/12/08 06:51:43;;;;;;;45.37;24.00;;;;;;;-0.36;84.79;99605.22;4998831;28;20038;-80
2021/12/08 06:54:19;;;;;;;48.03;24.30;;;;;;;-0.39;84.43;99603.41;4979309;28;20065;-79
2021/12/08 06:56:53;;;;;;;45.80;24.40;;;;;;;-0.29;84.70;99602.78;4994718;28;20057;-80
2021/12/08 06:59:22;;;;;;;46.17;25.13;;;;;;;-0.23;84.66;99607.22;4980761;28;20481;-80
2021/12/08 07:02:09;;;;;;;46.33;23.57;;;;;;;-0.21;83.91;99613.31;4997235;28;20042;-79
2021/12/08 07:05:09;;;;;;;46.17;25.47;;;;;;;-0.19;83.65;99614.22;4995710;28;20034;-79
2021/12/08 07:07:35;;;;;;;44.40;24.33;;;;;;;-0.17;83.45;99620.31;4996359;28;20408;-80
2021/12/08 07:10:11;;;;;;;45.70;24.40;;;;;;;-0.11;83.92;99622.19;4998440;28;20062;-79
2021/12/08 07:12:46;;;;;;;46.07;25.10;;;;;;;-0.08;83.71;99630.03;4996007;28;20030;-79
2021/12/08 07:15:40;;;;;;;44.93;23.57;;;;;;;-0.07;83.18;99626.59;4973519;28;20049;-80
2021/12/08 07:18:15;;;;;;;40.50;22.33;;;;;;;-0.05;83.14;99618.00;4972064;28;20064;-79
2021/12/08 07:20:47;;;;;;;43.13;23.47;;;;;;;-0.03;83.52;99629.31;4981196;28;20035;-80
2021/12/08 07:23:44;;;;;;;43.97;23.63;;;;;;;0.04;83.47;99626.84;4998791;28;20049;-78
2021/12/08 07:26:19;;;;;;;47.00;23.83;;;;;;;0.11;83.14;99634.78;4973775;28;20059;-79
2021/12/08 07:28:44;;;;;;;44.33;22.77;;;;;;;0.20;83.42;99634.09;4998521;28;20034;-80
2021/12/08 07:31:16;;;;;;;39.93;21.80;;;;;;;0.25;82.34;99627.28;4998775;28;20034;-80
2021/12/08 07:33:43;;;;;;;56.07;27.87;;;;;;;0.33;82.29;99636.09;4998881;28;20046;-80
2021/12/08 07:36:14;;;;;;;47.27;24.10;;;;;;;0.39;82.21;99632.75;4981076;28;20113;-79
2021/12/08 07:38:40;;;;;;;42.88;23.75;;;;;;;0.38;82.29;99634.47;4993253;28;20043;-79
2021/12/08 07:41:13;;;;;;;48.22;25.83;;;;;;;0.45;81.87;99625.09;4994825;28;20038;-80
2021/12/08 07:43:45;;;;;;;46.40;25.93;;;;;;;0.47;81.82;99622.53;4995305;28;20038;-79
2021/12/08 07:46:26;;;;;;;42.90;22.97;;;;;;;0.49;81.88;99620.84;4998347;28;20077;-79
2021/12/08 07:48:57;;;;;;;42.20;22.23;;;;;;;0.55;81.71;99623.53;4998207;28;20040;-80
2021/12/08 07:51:30;;;;;;;40.13;22.67;;;;;;;0.57;81.27;99619.25;4981449;28;20041;-80
2021/12/08 07:53:57;;;;;;;41.33;22.85;;;;;;;0.54;81.15;99616.59;4998199;28;20036;-79
2021/12/08 07:56:24;;;;;;;42.67;23.92;;;;;;;0.59;81.24;99604.59;4997935;28;20030;-80
2021/12/08 07:58:53;;;;;;;40.88;23.15;;;;;;;0.61;81.37;99601.19;4984709;28;20042;-80
2021/12/08 08:01:24;;;;;;;41.38;22.58;;;;;;;0.65;81.27;99605.59;4997940;28;20050;-80
2021/12/08 08:03:51;;;;;;;40.90;22.77;;;;;;;0.72;81.39;99603.97;4993744;28;20572;-79
2021/12/08 08:06:21;;;;;;;41.70;22.70;;;;;;;0.79;80.96;99612.78;4994036;28;20089;-80
2021/12/08 08:08:47;;;;;;;40.35;23.20;;;;;;;0.82;80.49;99608.50;4996512;28;20509;-79
2021/12/08 08:11:21;;;;;;;40.50;22.58;;;;;;;0.81;80.28;99609.34;4995687;28;20088;-80
2021/12/08 08:13:47;;;;;;;40.75;24.67;;;;;;;0.81;80.39;99603.25;4994220;28;20077;-79
2021/12/08 08:16:18;;;;;;;44.08;22.42;;;;;;;0.81;80.03;99598.97;4995435;28;20049;-79
2021/12/08 08:18:51;;;;;;;39.03;22.05;;;;;;;0.82;80.12;99605.03;4993684;28;20052;-80
2021/12/08 08:21:22;;;;;;;37.95;21.63;;;;;;;0.83;79.83;99597.25;4996402;28;20030;-80
2021/12/08 08:23:48;;;;;;;43.33;23.75;;;;;;;0.87;79.79;99593.88;4997618;28;20092;-80
2021/12/08 08:26:15;;;;;;;39.80;21.38;;;;;;;0.91;79.87;99588.72;4979526;28;20039;-80
2021/12/08 08:28:44;;;;;;;39.10;23.13;;;;;;;0.87;79.31;99588.66;4980432;28;20034;-80
2021/12/08 08:31:18;;;;;;;38.63;21.52;;;;;;;0.93;79.62;99582.69;4980338;28;20049;-79
2021/12/08 08:33:46;;;;;;;45.42;22.17;;;;;;;1.01;79.77;99580.25;4980234;28;20038;-79
2021/12/08 08:36:18;;;;;;;42.67;23.00;;;;;;;1.05;79.75;99582.06;4987943;28;20046;-79
2021/12/08 08:38:50;;;;;;;39.42;22.23;;;;;;;1.08;79.22;99572.56;4997778;28;20043;-79
2021/12/08 08:41:39;;;;;;;44.38;23.73;;;;;;;1.12;79.26;99573.50;4979377;28;20136;-80
2021/12/08 08:44:10;;;;;;;38.03;21.95;;;;;;;1.12;78.66;99567.41;4995212;28;20065;-80
2021/12/08 08:46:42;;;;;;;40.90;22.38;;;;;;;1.16;78.53;99571.84;4997674;28;20520;-80
2021/12/08 08:49:11;;;;;;;46.35;25.73;;;;;;;1.20;79.10;99568.41;4988309;28;20042;-80
2021/12/08 08:51:48;;;;;;;42.17;23.88;;;;;;;1.15;78.72;99562.28;4997308;28;20034;-80
2021/12/08 08:54:20;;;;;;;44.90;22.95;;;;;;;1.23;78.99;99566.75;4993798;28;20038;-80
2021/12/08 08:56:53;;;;;;;43.47;23.52;;;;;;;1.30;78.84;99568.59;4996705;28;20412;-80
2021/12/08 08:59:28;;;;;;;41.67;22.70;;;;;;;1.37;78.64;99569.56;4996975;28;20034;-80
2021/12/08 09:01:55;;;;;;;40.33;22.88;;;;;;;1.41;78.51;99570.47;4979489;28;20081;-80
2021/12/08 09:04:30;;;;;;;38.30;20.33;;;;;;;1.48;77.96;99559.31;4979351;28;20030;-80
2021/12/08 09:07:02;;;;;;;38.65;21.77;;;;;;;1.48;77.48;99569.72;4996842;28;20044;-80
2021/12/08 09:09:31;;;;;;;43.78;24.23;;;;;;;1.50;77.85;99570.63;4979917;28;20034;-79
2021/12/08 09:12:05;;;;;;;44.35;24.38;;;;;;;1.62;78.20;99575.13;4975024;28;20038;-80
2021/12/08 09:14:35;;;;;;;44.50;25.58;;;;;;;1.75;77.36;99566.63;4982878;28;20050;-79
2021/12/08 09:17:04;;;;;;;41.70;24.02;;;;;;;1.75;77.52;99564.03;4980170;28;20463;-80
2021/12/08 09:19:41;;;;;;;38.97;22.88;;;;;;;1.82;77.47;99570.22;4996697;28;20066;-80
2021/12/08 09:22:31;;;;;;;42.00;23.70;;;;;;;1.87;76.97;99576.34;4996936;28;20058;-79
2021/12/08 09:25:19;;;;;;;36.90;22.23;;;;;;;1.90;77.04;99576.38;4994934;28;20041;-79
2021/12/08 09:27:53;;;;;;;39.80;22.17;;;;;;;1.90;76.70;99576.38;4993914;28;20034;-80
2021/12/08 09:30:33;;;;;;;39.42;21.10;;;;;;;1.88;76.57;99572.88;4997214;28;20038;-80
2021/12/08 09:33:09;;;;;;;44.15;24.10;;;;;;;1.89;76.49;99564.25;4994568;28;20455;-79
2021/12/08 09:36:00;;;;;;;46.65;23.20;;;;;;;1.84;76.17;99566.78;4976159;28;20038;-79
2021/12/08 09:38:33;;;;;;;42.05;23.08;;;;;;;1.89;76.50;99564.25;4976902;28;20050;-80
2021/12/08 09:41:06;;;;;;;44.33;25.48;;;;;;;1.93;76.51;99561.69;4976788;28;20069;-79
2021/12/08 09:43:37;;;;;;;;;;;;;;;1.89;75.92;99553.84;4995588;28;20045;-80
2021/12/08 09:46:07;;;;;;;54.55;29.60;;;;;;;1.98;76.79;99553.94;5002284;28;19914;-80
2021/12/08 09:48:36;;;;;;;52.28;31.40;;;;;;;2.07;76.68;99556.69;5001761;28;20037;-80
2021/12/08 09:51:01;;;;;;;52.15;30.50;;;;;;;2.11;75.55;99555.84;5001940;28;20507;-80
2021/12/08 09:53:27;;;;;;;47.63;26.48;;;;;;;2.10;75.37;99561.91;4993031;28;20030;-80
2021/12/08 09:55:54;;;;;;;43.00;25.10;;;;;;;2.14;75.73;99544.59;5001696;28;20069;-80
2021/12/08 09:58:19;;;;;;;45.03;26.30;;;;;;;2.21;75.56;99548.16;5002203;28;20039;-80
2021/12/08 10:00:47;;;;;;;39.97;23.30;;;;;;;2.32;75.04;99543.94;5002099;28;20107;-79
2021/12/08 10:03:14;;;;;;;40.85;21.75;;;;;;;2.42;75.28;99531.03;4980815;28;20101;-80
2021/12/08 10:05:41;;;;;;;37.95;20.70;;;;;;;2.50;74.67;99528.50;4988059;28;20046;-80
2021/12/08 10:08:09;;;;;;;34.53;20.52;;;;;;;2.57;74.17;99526.84;4984312;28;20041;-80
2021/12/08 10:10:36;;;;;;;34.50;20.27;;;;;;;2.57;73.94;99527.72;5001759;28;20042;-80
2021/12/08 10:13:02;;;;;;;33.90;20.23;;;;;;;2.56;74.43;99523.34;5001674;28;20026;-80
2021/12/08 10:15:28;;;;;;;37.28;20.65;;;;;;;2.61;74.07;99519.06;4992717;28;20603;-80
2021/12/08 10:17:56;;;;;;;35.00;19.80;;;;;;;2.63;74.17;99509.53;5001800;28;20066;-80
2021/12/08 10:20:27;;;;;;;33.40;18.45;;;;;;;2.73;73.32;99504.44;4984707;28;20503;-79
2021/12/08 10:23:21;;;;;;;29.52;17.35;;;;;;;2.84;73.16;99508.00;4984073;28;20551;-81
2021/12/08 10:26:13;;;;;;;30.65;18.65;;;;;;;2.87;72.42;99505.41;5000650;28;20076;-80
2021/12/08 10:28:43;;;;;;;30.25;18.63;;;;;;;2.89;73.17;99511.50;4975437;28;20074;-80
2021/12/08 10:31:14;;;;;;;34.22;19.27;;;;;;;2.98;72.78;99510.69;4984117;28;20125;-80
2021/12/08 10:34:01;;;;;;;32.17;19.15;;;;;;;2.94;72.13;99509.81;4992380;28;20129;-80
2021/12/08 10:36:44;;;;;;;32.83;18.48;;;;;;;3.00;73.00;99511.59;4981296;28;20034;-80
2021/12/08 10:39:23;;;;;;;30.00;18.27;;;;;;;3.02;72.07;99504.66;4967423;28;20034;-80
2021/12/08 10:41:52;;;;;;;28.25;17.83;;;;;;;3.02;72.24;99502.06;4981625;28;20124;-79
2021/12/08 10:44:32;;;;;;;35.63;19.67;;;;;;;3.03;71.93;99498.56;5000587;28;20391;-80
2021/12/08 10:46:59;;;;;;;32.08;20.55;;;;;;;3.10;72.21;99489.09;5001356;28;20070;-80
2021/12/08 10:54:44;;;;;;;36.92;20.48;;;;;;;3.02;72.50;99510.75;4980982;28;20509;-80
2021/12/08 10:57:24;;;;;;;33.72;19.63;;;;;;;3.00;71.97;99486.41;4999849;28;20114;-80
2021/12/08 11:00:19;;;;;;;34.78;20.27;;;;;;;2.94;72.21;99483.75;5001029;28;20055;-81
2021/12/08 11:03:02;;;;;;;38.13;22.48;;;;;;;2.93;72.09;99495.03;4980704;28;20109;-80
2021/12/08 11:05:36;;;;;;;38.63;22.10;;;;;;;2.96;72.74;99496.78;4995413;28;20064;-80
2021/12/08 11:08:08;;;;;;;32.55;19.73;;;;;;;2.93;72.09;99487.19;4999617;28;20042;-81
2021/12/08 11:10:59;;;;;;;33.33;19.20;;;;;;;2.98;72.19;99498.53;4999385;28;20022;-80
2021/12/08 11:13:28;;;;;;;34.13;20.70;;;;;;;3.04;72.53;99498.59;4998345;28;20027;-80
2021/12/08 11:16:16;;;;;;;33.58;20.77;;;;;;;3.12;72.32;99485.63;4998412;28;20038;-79
2021/12/08 11:18:51;;;;;;;34.60;20.85;;;;;;;3.17;72.13;99491.75;4996438;28;20077;-80
2021/12/08 11:21:38;;;;;;;37.22;20.73;;;;;;;3.24;71.73;99482.22;4998550;28;20101;-80
2021/12/08 11:24:12;;;;;;;34.30;20.63;;;;;;;3.27;71.73;99482.22;5000016;28;20038;-80
2021/12/08 11:26:41;;;;;;;38.05;22.20;;;;;;;3.31;71.69;99478.78;4990252;28;20043;-81
2021/12/08 11:29:09;;;;;;;36.47;21.60;;;;;;;3.29;71.41;99475.28;4997098;28;20060;-80
2021/12/08 11:31:37;;;;;;;35.58;21.25;;;;;;;3.32;71.06;99472.69;5026038;23;20136;-76
2021/12/08 11:34:06;;;;;;;33.70;21.35;;;;;;;3.33;71.33;99469.25;5050154;28;20045;-76
2021/12/08 11:36:36;;;;;;;33.95;19.25;;;;;;;3.31;71.84;99465.75;5045857;28;20083;-76
2021/12/08 11:39:15;;;;;;;35.97;21.50;;;;;;;3.31;71.30;99470.09;5049998;28;20161;-76
2021/12/08 11:41:46;;;;;;;32.78;19.17;;;;;;;3.28;71.75;99468.34;5051659;28;20040;-77
2021/12/08 11:44:17;;;;;;;31.88;17.92;;;;;;;3.27;71.46;99470.09;5044734;28;20033;-77
2021/12/08 11:46:50;;;;;;;31.40;18.58;;;;;;;3.19;71.12;99457.84;5041987;28;20069;-76
2021/12/08 11:49:16;;;;;;;32.33;19.35;;;;;;;3.25;71.61;99469.19;5045839;28;20041;-77
2021/12/08 11:51:44;;;;;;;35.47;21.45;;;;;;;3.35;71.64;99477.94;5047162;28;20387;-77
2021/12/08 11:54:34;;;;;;;36.63;21.17;;;;;;;3.37;71.31;99468.38;5039866;28;20037;-77
2021/12/08 11:57:10;;;;;;;37.22;21.52;;;;;;;3.43;71.26;99467.53;5043508;28;20037;-77
2021/12/08 11:59:49;;;;;;;32.70;20.80;;;;;;;3.44;71.07;99464.09;5041515;28;20408;-76
2021/12/08 12:02:15;;;;;;;37.13;21.60;;;;;;;3.45;71.57;99458.88;5044878;28;20038;-76
2021/12/08 12:04:45;;;;;;;36.17;21.75;;;;;;;3.46;71.32;99462.38;5039991;28;20041;-76
2021/12/08 12:07:12;;;;;;;32.90;19.63;;;;;;;3.38;71.07;99454.50;5043205;28;20029;-77
2021/12/08 12:09:40;;;;;;;32.85;19.33;;;;;;;3.31;71.08;99455.31;5045959;28;20036;-76
2021/12/08 12:12:06;;;;;;;40.42;21.83;;;;;;;3.29;71.29;99464.88;5039418;28;20475;-77
2021/12/08 12:14:31;;;;;;;33.05;19.98;;;;;;;3.26;71.48;99464.84;5050909;28;20063;-77
2021/12/08 12:16:57;;;;;;;30.75;19.33;;;;;;;3.27;71.94;99479.63;5044042;28;20683;-77
2021/12/08 12:19:26;;;;;;;30.55;18.13;;;;;;;3.26;71.33;99473.53;5040642;28;20115;-76
2021/12/08 12:22:02;;;;;;;29.90;17.63;;;;;;;3.24;71.71;99471.78;5047331;28;20040;-76
2021/12/08 12:25:01;;;;;;;31.95;19.88;;;;;;;3.26;71.50;99459.63;5041325;28;20128;-77